sensor_id;sensor_type;location;lat;lon;timestamp;temperature;humidity
36292;DHT22;22327;51.208;6.418;2023-04-25T00:00:20;10.00;98.20
36292;DHT22;22327;51.208;6.418;2023-04-25T00:02:46;10.00;98.20
36292;DHT22;22327;51.208;6.418;2023-04-25T00:05:12;10.00;98.30
36292;DHT22;22327;51.208;6.418;2023-04-25T00:07:40;10.00;98.20
36292;DHT22;22327;51.208;6.418;2023-04-25T00:10:08;10.00;98.40
36292;DHT22;22327;51.208;6.418;2023-04-25T00:12:33;10.00;98.40
36292;DHT22;22327;51.208;6.418;2023-04-25T00:14:59;10.00;98.50
36292;DHT22;22327;51.208;6.418;2023-04-25T00:17:25;10.10;98.50
36292;DHT22;22327;51.208;6.418;2023-04-25T00:19:52;10.20;98.40
36292;DHT22;22327;51.208;6.418;2023-04-25T00:22:17;10.20;98.40
36292;DHT22;22327;51.208;6.418;2023-04-25T00:24:43;10.30;98.40
36292;DHT22;22327;51.208;6.418;2023-04-25T00:27:09;10.40;97.90
36292;DHT22;22327;51.208;6.418;2023-04-25T00:29:34;10.40;98.00
36292;DHT22;22327;51.208;6.418;2023-04-25T00:32:00;10.50;98.10
36292;DHT22;22327;51.208;6.418;2023-04-25T00:34:25;10.60;97.90
36292;DHT22;22327;51.208;6.418;2023-04-25T00:36:51;10.60;97.80
36292;DHT22;22327;51.208;6.418;2023-04-25T00:39:17;10.70;97.90
36292;DHT22;22327;51.208;6.418;2023-04-25T00:41:43;10.70;97.80
36292;DHT22;22327;51.208;6.418;2023-04-25T00:44:10;10.80;97.80
36292;DHT22;22327;51.208;6.418;2023-04-25T00:46:37;10.80;97.60
36292;DHT22;22327;51.208;6.418;2023-04-25T00:49:03;10.80;97.40
36292;DHT22;22327;51.208;6.418;2023-04-25T00:51:29;10.80;97.30
36292;DHT22;22327;51.208;6.418;2023-04-25T00:53:56;10.70;97.40
36292;DHT22;22327;51.208;6.418;2023-04-25T00:56:21;10.70;97.60
36292;DHT22;22327;51.208;6.418;2023-04-25T00:58:48;10.70;97.70
36292;DHT22;22327;51.208;6.418;2023-04-25T01:01:13;10.80;97.50
36292;DHT22;22327;51.208;6.418;2023-04-25T01:03:39;10.80;97.40
36292;DHT22;22327;51.208;6.418;2023-04-25T01:06:07;10.80;97.50
36292;DHT22;22327;51.208;6.418;2023-04-25T01:08:34;10.80;97.70
36292;DHT22;22327;51.208;6.418;2023-04-25T01:10:59;10.80;97.60
36292;DHT22;22327;51.208;6.418;2023-04-25T01:13:25;10.90;97.70
36292;DHT22;22327;51.208;6.418;2023-04-25T01:15:50;11.00;97.50
36292;DHT22;22327;51.208;6.418;2023-04-25T01:18:16;11.00;97.40
36292;DHT22;22327;51.208;6.418;2023-04-25T01:20:42;11.00;97.20
36292;DHT22;22327;51.208;6.418;2023-04-25T01:23:09;11.00;97.20
36292;DHT22;22327;51.208;6.418;2023-04-25T01:25:35;11.00;97.30
36292;DHT22;22327;51.208;6.418;2023-04-25T01:28:01;11.00;97.20
36292;DHT22;22327;51.208;6.418;2023-04-25T01:30:27;11.00;97.00
36292;DHT22;22327;51.208;6.418;2023-04-25T01:32:57;11.00;96.80
36292;DHT22;22327;51.208;6.418;2023-04-25T01:35:24;11.00;96.80
36292;DHT22;22327;51.208;6.418;2023-04-25T01:37:51;11.00;96.70
36292;DHT22;22327;51.208;6.418;2023-04-25T01:40:17;10.80;96.50
36292;DHT22;22327;51.208;6.418;2023-04-25T01:42:44;10.70;96.50
36292;DHT22;22327;51.208;6.418;2023-04-25T01:45:10;10.60;96.60
36292;DHT22;22327;51.208;6.418;2023-04-25T01:47:37;10.40;96.80
36292;DHT22;22327;51.208;6.418;2023-04-25T01:50:03;10.30;97.00
36292;DHT22;22327;51.208;6.418;2023-04-25T01:52:29;10.20;97.40
36292;DHT22;22327;51.208;6.418;2023-04-25T01:54:57;10.20;97.40
36292;DHT22;22327;51.208;6.418;2023-04-25T01:57:23;10.20;97.50
36292;DHT22;22327;51.208;6.418;2023-04-25T01:59:49;10.10;97.60
36292;DHT22;22327;51.208;6.418;2023-04-25T02:02:15;10.10;97.50
36292;DHT22;22327;51.208;6.418;2023-04-25T02:04:40;10.10;97.60
36292;DHT22;22327;51.208;6.418;2023-04-25T02:07:06;10.00;97.80
36292;DHT22;22327;51.208;6.418;2023-04-25T02:09:31;10.00;97.80
36292;DHT22;22327;51.208;6.418;2023-04-25T02:11:57;10.00;97.90
36292;DHT22;22327;51.208;6.418;2023-04-25T02:14:23;10.00;97.90
36292;DHT22;22327;51.208;6.418;2023-04-25T02:16:48;10.00;98.00
36292;DHT22;22327;51.208;6.418;2023-04-25T02:19:14;10.00;98.00
36292;DHT22;22327;51.208;6.418;2023-04-25T02:21:40;10.00;98.00
36292;DHT22;22327;51.208;6.418;2023-04-25T02:24:06;10.00;98.20
36292;DHT22;22327;51.208;6.418;2023-04-25T02:26:31;10.10;98.30
36292;DHT22;22327;51.208;6.418;2023-04-25T02:28:57;10.10;98.20
36292;DHT22;22327;51.208;6.418;2023-04-25T02:31:23;10.00;98.10
36292;DHT22;22327;51.208;6.418;2023-04-25T02:33:48;10.00;98.20
36292;DHT22;22327;51.208;6.418;2023-04-25T02:36:14;10.00;98.30
36292;DHT22;22327;51.208;6.418;2023-04-25T02:38:40;10.00;98.30
36292;DHT22;22327;51.208;6.418;2023-04-25T02:41:05;10.00;98.50
36292;DHT22;22327;51.208;6.418;2023-04-25T02:43:31;10.00;98.70
36292;DHT22;22327;51.208;6.418;2023-04-25T02:45:57;10.10;98.60
36292;DHT22;22327;51.208;6.418;2023-04-25T02:48:22;10.10;98.60
36292;DHT22;22327;51.208;6.418;2023-04-25T02:50:48;10.10;98.40
36292;DHT22;22327;51.208;6.418;2023-04-25T02:53:13;10.10;98.30
36292;DHT22;22327;51.208;6.418;2023-04-25T02:55:39;10.00;98.20
36292;DHT22;22327;51.208;6.418;2023-04-25T02:58:04;9.90;98.40
36292;DHT22;22327;51.208;6.418;2023-04-25T03:00:30;9.90;98.50
36292;DHT22;22327;51.208;6.418;2023-04-25T03:02:56;9.90;98.40
36292;DHT22;22327;51.208;6.418;2023-04-25T03:05:22;9.80;98.50
36292;DHT22;22327;51.208;6.418;2023-04-25T03:07:47;9.80;98.70
36292;DHT22;22327;51.208;6.418;2023-04-25T03:10:13;9.80;98.90
36292;DHT22;22327;51.208;6.418;2023-04-25T03:12:38;9.80;99.00
36292;DHT22;22327;51.208;6.418;2023-04-25T03:15:04;9.80;99.20
36292;DHT22;22327;51.208;6.418;2023-04-25T03:17:30;9.70;99.20
36292;DHT22;22327;51.208;6.418;2023-04-25T03:19:57;9.80;99.10
36292;DHT22;22327;51.208;6.418;2023-04-25T03:22:22;9.80;99.00
36292;DHT22;22327;51.208;6.418;2023-04-25T03:24:49;9.80;98.90
36292;DHT22;22327;51.208;6.418;2023-04-25T03:27:14;9.80;98.90
36292;DHT22;22327;51.208;6.418;2023-04-25T03:29:40;9.80;99.00
36292;DHT22;22327;51.208;6.418;2023-04-25T03:32:06;9.70;98.90
36292;DHT22;22327;51.208;6.418;2023-04-25T03:34:31;9.70;99.10
36292;DHT22;22327;51.208;6.418;2023-04-25T03:36:57;9.60;99.20
36292;DHT22;22327;51.208;6.418;2023-04-25T03:39:23;9.60;99.30
36292;DHT22;22327;51.208;6.418;2023-04-25T03:41:48;9.60;99.50
36292;DHT22;22327;51.208;6.418;2023-04-25T03:44:14;9.50;99.50
36292;DHT22;22327;51.208;6.418;2023-04-25T03:46:39;9.60;99.50
36292;DHT22;22327;51.208;6.418;2023-04-25T03:49:05;9.50;99.50
36292;DHT22;22327;51.208;6.418;2023-04-25T03:51:31;9.50;99.70
36292;DHT22;22327;51.208;6.418;2023-04-25T03:53:56;9.50;99.70
36292;DHT22;22327;51.208;6.418;2023-04-25T03:56:22;9.50;99.50
36292;DHT22;22327;51.208;6.418;2023-04-25T03:58:48;9.50;99.40
36292;DHT22;22327;51.208;6.418;2023-04-25T04:01:13;9.50;99.40
36292;DHT22;22327;51.208;6.418;2023-04-25T04:03:39;9.40;99.30
36292;DHT22;22327;51.208;6.418;2023-04-25T04:06:05;9.40;99.40
36292;DHT22;22327;51.208;6.418;2023-04-25T04:08:32;9.30;99.50
36292;DHT22;22327;51.208;6.418;2023-04-25T04:10:58;9.20;99.70
36292;DHT22;22327;51.208;6.418;2023-04-25T04:13:26;9.10;99.90
36292;DHT22;22327;51.208;6.418;2023-04-25T04:15:51;9.10;99.90
36292;DHT22;22327;51.208;6.418;2023-04-25T04:18:17;9.10;99.90
36292;DHT22;22327;51.208;6.418;2023-04-25T04:20:42;9.10;99.90
36292;DHT22;22327;51.208;6.418;2023-04-25T04:23:08;9.00;99.90
36292;DHT22;22327;51.208;6.418;2023-04-25T04:25:33;9.00;99.90
36292;DHT22;22327;51.208;6.418;2023-04-25T04:27:59;9.00;99.90
36292;DHT22;22327;51.208;6.418;2023-04-25T04:30:26;9.00;99.90
36292;DHT22;22327;51.208;6.418;2023-04-25T04:32:55;9.10;99.90
36292;DHT22;22327;51.208;6.418;2023-04-25T04:35:21;9.10;99.90
36292;DHT22;22327;51.208;6.418;2023-04-25T04:37:47;9.10;99.90
36292;DHT22;22327;51.208;6.418;2023-04-25T04:40:14;9.10;99.90
36292;DHT22;22327;51.208;6.418;2023-04-25T04:42:41;9.20;99.90
36292;DHT22;22327;51.208;6.418;2023-04-25T04:45:08;9.30;99.90
36292;DHT22;22327;51.208;6.418;2023-04-25T04:47:34;9.30;99.90
36292;DHT22;22327;51.208;6.418;2023-04-25T04:50:02;9.40;99.90
36292;DHT22;22327;51.208;6.418;2023-04-25T04:52:28;9.70;99.90
36292;DHT22;22327;51.208;6.418;2023-04-25T04:54:53;9.80;99.90
36292;DHT22;22327;51.208;6.418;2023-04-25T04:57:20;10.00;99.90
36292;DHT22;22327;51.208;6.418;2023-04-25T04:59:46;10.10;99.60
36292;DHT22;22327;51.208;6.418;2023-04-25T05:02:11;10.40;99.80
36292;DHT22;22327;51.208;6.418;2023-04-25T05:04:37;10.60;99.50
36292;DHT22;22327;51.208;6.418;2023-04-25T05:07:02;10.90;99.50
36292;DHT22;22327;51.208;6.418;2023-04-25T05:09:28;11.20;98.60
36292;DHT22;22327;51.208;6.418;2023-04-25T05:11:53;11.50;97.50
36292;DHT22;22327;51.208;6.418;2023-04-25T05:14:19;11.80;96.80
36292;DHT22;22327;51.208;6.418;2023-04-25T05:16:44;11.90;96.40
36292;DHT22;22327;51.208;6.418;2023-04-25T05:19:10;11.90;96.10
36292;DHT22;22327;51.208;6.418;2023-04-25T05:21:36;11.80;95.70
36292;DHT22;22327;51.208;6.418;2023-04-25T05:24:01;11.80;95.90
36292;DHT22;22327;51.208;6.418;2023-04-25T05:26:27;11.80;95.90
36292;DHT22;22327;51.208;6.418;2023-04-25T05:28:56;11.90;95.80
36292;DHT22;22327;51.208;6.418;2023-04-25T05:31:22;11.90;95.50
36292;DHT22;22327;51.208;6.418;2023-04-25T05:33:48;11.90;95.80
36292;DHT22;22327;51.208;6.418;2023-04-25T05:36:13;12.00;95.70
36292;DHT22;22327;51.208;6.418;2023-04-25T05:38:38;12.00;95.70
36292;DHT22;22327;51.208;6.418;2023-04-25T05:41:04;12.20;95.60
36292;DHT22;22327;51.208;6.418;2023-04-25T05:43:30;12.20;95.00
36292;DHT22;22327;51.208;6.418;2023-04-25T05:45:55;12.30;95.00
36292;DHT22;22327;51.208;6.418;2023-04-25T05:48:21;12.20;94.60
36292;DHT22;22327;51.208;6.418;2023-04-25T05:50:46;12.20;94.50
36292;DHT22;22327;51.208;6.418;2023-04-25T05:53:12;12.10;94.70
36292;DHT22;22327;51.208;6.418;2023-04-25T05:55:38;12.10;94.90
36292;DHT22;22327;51.208;6.418;2023-04-25T05:58:05;12.20;95.00
36292;DHT22;22327;51.208;6.418;2023-04-25T06:00:31;12.20;94.50
36292;DHT22;22327;51.208;6.418;2023-04-25T06:02:57;12.30;94.60
36292;DHT22;22327;51.208;6.418;2023-04-25T06:05:22;12.40;94.60
36292;DHT22;22327;51.208;6.418;2023-04-25T06:07:48;12.60;94.50
36292;DHT22;22327;51.208;6.418;2023-04-25T06:10:13;12.70;93.80
36292;DHT22;22327;51.208;6.418;2023-04-25T06:12:39;12.80;93.80
36292;DHT22;22327;51.208;6.418;2023-04-25T06:15:05;12.90;93.40
36292;DHT22;22327;51.208;6.418;2023-04-25T06:17:31;13.00;93.40
36292;DHT22;22327;51.208;6.418;2023-04-25T06:19:56;13.00;92.70
36292;DHT22;22327;51.208;6.418;2023-04-25T06:22:22;13.10;92.80
36292;DHT22;22327;51.208;6.418;2023-04-25T06:24:47;13.00;92.80
36292;DHT22;22327;51.208;6.418;2023-04-25T06:27:13;13.20;92.90
36292;DHT22;22327;51.208;6.418;2023-04-25T06:29:38;13.10;92.70
36292;DHT22;22327;51.208;6.418;2023-04-25T06:32:04;13.30;92.80
36292;DHT22;22327;51.208;6.418;2023-04-25T06:34:30;13.40;92.80
36292;DHT22;22327;51.208;6.418;2023-04-25T06:36:55;13.50;92.20
36292;DHT22;22327;51.208;6.418;2023-04-25T06:39:21;13.70;92.20
36292;DHT22;22327;51.208;6.418;2023-04-25T06:41:48;13.80;91.30
36292;DHT22;22327;51.208;6.418;2023-04-25T06:44:14;13.80;91.20
36292;DHT22;22327;51.208;6.418;2023-04-25T06:46:40;13.80;91.10
36292;DHT22;22327;51.208;6.418;2023-04-25T06:49:06;13.90;90.90
36292;DHT22;22327;51.208;6.418;2023-04-25T06:51:31;13.90;90.10
36292;DHT22;22327;51.208;6.418;2023-04-25T06:53:57;13.80;90.10
36292;DHT22;22327;51.208;6.418;2023-04-25T06:56:22;13.80;90.00
36292;DHT22;22327;51.208;6.418;2023-04-25T06:58:49;13.80;89.60
36292;DHT22;22327;51.208;6.418;2023-04-25T07:01:14;13.80;90.50
36292;DHT22;22327;51.208;6.418;2023-04-25T07:03:40;14.00;91.40
36292;DHT22;22327;51.208;6.418;2023-04-25T07:06:06;14.80;92.10
36292;DHT22;22327;51.208;6.418;2023-04-25T07:08:31;16.10;90.90
36292;DHT22;22327;51.208;6.418;2023-04-25T07:10:57;17.40;86.90
36292;DHT22;22327;51.208;6.418;2023-04-25T07:13:22;18.60;79.90
36292;DHT22;22327;51.208;6.418;2023-04-25T07:15:48;19.00;73.70
36292;DHT22;22327;51.208;6.418;2023-04-25T07:18:14;18.70;68.80
36292;DHT22;22327;51.208;6.418;2023-04-25T07:20:39;18.40;69.20
36292;DHT22;22327;51.208;6.418;2023-04-25T07:23:05;18.30;71.40
36292;DHT22;22327;51.208;6.418;2023-04-25T07:25:30;18.40;66.40
36292;DHT22;22327;51.208;6.418;2023-04-25T07:27:56;18.60;67.80
36292;DHT22;22327;51.208;6.418;2023-04-25T07:30:22;19.00;69.60
36292;DHT22;22327;51.208;6.418;2023-04-25T07:32:48;19.70;67.70
36292;DHT22;22327;51.208;6.418;2023-04-25T07:35:14;21.40;60.10
36292;DHT22;22327;51.208;6.418;2023-04-25T07:37:39;21.50;60.50
36292;DHT22;22327;51.208;6.418;2023-04-25T07:40:05;22.30;58.50
36292;DHT22;22327;51.208;6.418;2023-04-25T07:42:31;23.00;54.70
36292;DHT22;22327;51.208;6.418;2023-04-25T07:44:57;23.70;53.10
36292;DHT22;22327;51.208;6.418;2023-04-25T07:47:22;24.10;47.40
36292;DHT22;22327;51.208;6.418;2023-04-25T07:49:48;23.80;46.40
36292;DHT22;22327;51.208;6.418;2023-04-25T07:52:14;23.40;45.00
36292;DHT22;22327;51.208;6.418;2023-04-25T07:54:39;23.10;46.70
36292;DHT22;22327;51.208;6.418;2023-04-25T07:57:05;23.00;45.80
36292;DHT22;22327;51.208;6.418;2023-04-25T07:59:33;22.80;46.00
36292;DHT22;22327;51.208;6.418;2023-04-25T08:02:00;22.40;46.10
36292;DHT22;22327;51.208;6.418;2023-04-25T08:04:26;22.10;47.50
36292;DHT22;22327;51.208;6.418;2023-04-25T08:06:51;22.20;47.10
36292;DHT22;22327;51.208;6.418;2023-04-25T08:09:19;22.50;46.50
36292;DHT22;22327;51.208;6.418;2023-04-25T08:11:45;22.70;45.10
36292;DHT22;22327;51.208;6.418;2023-04-25T08:14:11;22.70;46.00
36292;DHT22;22327;51.208;6.418;2023-04-25T08:16:37;22.40;44.60
36292;DHT22;22327;51.208;6.418;2023-04-25T08:19:03;22.00;45.00
36292;DHT22;22327;51.208;6.418;2023-04-25T08:21:28;21.50;45.30
36292;DHT22;22327;51.208;6.418;2023-04-25T08:23:54;21.10;46.30
36292;DHT22;22327;51.208;6.418;2023-04-25T08:26:20;20.80;46.70
36292;DHT22;22327;51.208;6.418;2023-04-25T08:28:46;20.60;46.50
36292;DHT22;22327;51.208;6.418;2023-04-25T08:31:12;20.90;47.10
36292;DHT22;22327;51.208;6.418;2023-04-25T08:33:37;21.20;46.40
36292;DHT22;22327;51.208;6.418;2023-04-25T08:36:03;21.10;44.30
36292;DHT22;22327;51.208;6.418;2023-04-25T08:38:29;20.70;43.50
36292;DHT22;22327;51.208;6.418;2023-04-25T08:40:54;20.20;43.40
36292;DHT22;22327;51.208;6.418;2023-04-25T08:43:23;19.70;45.20
36292;DHT22;22327;51.208;6.418;2023-04-25T08:45:48;19.20;46.50
36292;DHT22;22327;51.208;6.418;2023-04-25T08:48:16;18.90;48.20
36292;DHT22;22327;51.208;6.418;2023-04-25T08:50:53;18.70;48.40
36292;DHT22;22327;51.208;6.418;2023-04-25T08:53:26;18.50;47.80
36292;DHT22;22327;51.208;6.418;2023-04-25T08:55:54;18.20;48.00
36292;DHT22;22327;51.208;6.418;2023-04-25T08:58:20;18.00;49.60
36292;DHT22;22327;51.208;6.418;2023-04-25T09:00:47;18.10;49.80
36292;DHT22;22327;51.208;6.418;2023-04-25T09:03:13;18.30;49.20
36292;DHT22;22327;51.208;6.418;2023-04-25T09:05:40;18.30;48.90
36292;DHT22;22327;51.208;6.418;2023-04-25T09:08:05;18.70;48.80
36292;DHT22;22327;51.208;6.418;2023-04-25T09:10:32;19.80;49.30
36292;DHT22;22327;51.208;6.418;2023-04-25T09:13:09;20.80;48.50
36292;DHT22;22327;51.208;6.418;2023-04-25T09:15:49;21.30;43.70
36292;DHT22;22327;51.208;6.418;2023-04-25T09:18:23;21.50;43.30
36292;DHT22;22327;51.208;6.418;2023-04-25T09:20:52;22.00;44.10
36292;DHT22;22327;51.208;6.418;2023-04-25T09:23:19;23.10;44.40
36292;DHT22;22327;51.208;6.418;2023-04-25T09:25:51;24.20;39.80
36292;DHT22;22327;51.208;6.418;2023-04-25T09:28:24;24.40;38.30
36292;DHT22;22327;51.208;6.418;2023-04-25T09:30:55;24.10;38.50
36292;DHT22;22327;51.208;6.418;2023-04-25T09:33:30;23.30;37.40
36292;DHT22;22327;51.208;6.418;2023-04-25T09:36:03;22.20;39.80
36292;DHT22;22327;51.208;6.418;2023-04-25T09:38:39;21.20;41.80
36292;DHT22;22327;51.208;6.418;2023-04-25T09:41:06;20.60;43.60
36292;DHT22;22327;51.208;6.418;2023-04-25T09:43:32;20.20;44.50
36292;DHT22;22327;51.208;6.418;2023-04-25T09:45:58;19.80;44.60
36292;DHT22;22327;51.208;6.418;2023-04-25T09:48:25;19.50;44.50
36292;DHT22;22327;51.208;6.418;2023-04-25T09:51:10;19.20;45.90
36292;DHT22;22327;51.208;6.418;2023-04-25T09:53:37;18.90;46.80
36292;DHT22;22327;51.208;6.418;2023-04-25T09:56:04;18.70;47.40
36292;DHT22;22327;51.208;6.418;2023-04-25T09:58:31;18.40;47.80
36292;DHT22;22327;51.208;6.418;2023-04-25T10:01:00;18.20;48.60
36292;DHT22;22327;51.208;6.418;2023-04-25T10:03:29;18.00;48.60
36292;DHT22;22327;51.208;6.418;2023-04-25T10:05:57;17.90;47.80
36292;DHT22;22327;51.208;6.418;2023-04-25T10:08:26;17.70;48.40
36292;DHT22;22327;51.208;6.418;2023-04-25T10:10:54;17.50;47.20
36292;DHT22;22327;51.208;6.418;2023-04-25T10:13:20;17.50;48.30
36292;DHT22;22327;51.208;6.418;2023-04-25T10:15:47;17.30;48.60
36292;DHT22;22327;51.208;6.418;2023-04-25T10:18:12;17.10;49.50
36292;DHT22;22327;51.208;6.418;2023-04-25T10:20:38;17.00;49.80
36292;DHT22;22327;51.208;6.418;2023-04-25T10:23:12;16.80;50.00
36292;DHT22;22327;51.208;6.418;2023-04-25T10:25:39;16.70;51.30
36292;DHT22;22327;51.208;6.418;2023-04-25T10:28:05;16.60;50.80
36292;DHT22;22327;51.208;6.418;2023-04-25T10:30:31;16.60;51.90
36292;DHT22;22327;51.208;6.418;2023-04-25T10:32:58;16.60;52.30
36292;DHT22;22327;51.208;6.418;2023-04-25T10:35:27;16.90;52.40
36292;DHT22;22327;51.208;6.418;2023-04-25T10:38:05;17.00;52.10
36292;DHT22;22327;51.208;6.418;2023-04-25T10:40:32;17.20;50.20
36292;DHT22;22327;51.208;6.418;2023-04-25T10:46:24;17.20;49.20
36292;DHT22;22327;51.208;6.418;2023-04-25T10:48:51;17.20;49.60
36292;DHT22;22327;51.208;6.418;2023-04-25T10:51:25;17.40;51.10
36292;DHT22;22327;51.208;6.418;2023-04-25T10:59:06;17.30;49.20
36292;DHT22;22327;51.208;6.418;2023-04-25T11:01:42;17.30;48.70
36292;DHT22;22327;51.208;6.418;2023-04-25T11:09:29;17.80;49.20
36292;DHT22;22327;51.208;6.418;2023-04-25T11:11:56;17.90;46.90
36292;DHT22;22327;51.208;6.418;2023-04-25T11:14:22;17.80;46.70
36292;DHT22;22327;51.208;6.418;2023-04-25T11:16:53;17.60;46.90
36292;DHT22;22327;51.208;6.418;2023-04-25T11:19:20;17.40;47.10
36292;DHT22;22327;51.208;6.418;2023-04-25T11:21:46;17.20;48.30
36292;DHT22;22327;51.208;6.418;2023-04-25T11:24:11;16.90;48.90
36292;DHT22;22327;51.208;6.418;2023-04-25T11:26:37;16.60;50.00
36292;DHT22;22327;51.208;6.418;2023-04-25T11:29:03;16.60;51.10
36292;DHT22;22327;51.208;6.418;2023-04-25T11:31:29;16.40;50.80
36292;DHT22;22327;51.208;6.418;2023-04-25T11:33:57;16.40;51.60
36292;DHT22;22327;51.208;6.418;2023-04-25T11:36:23;16.40;51.00
36292;DHT22;22327;51.208;6.418;2023-04-25T11:38:50;16.40;50.90
36292;DHT22;22327;51.208;6.418;2023-04-25T11:41:17;16.40;51.30
36292;DHT22;22327;51.208;6.418;2023-04-25T11:43:43;16.30;52.50
36292;DHT22;22327;51.208;6.418;2023-04-25T11:46:09;16.20;52.50
36292;DHT22;22327;51.208;6.418;2023-04-25T11:48:42;16.00;53.00
36292;DHT22;22327;51.208;6.418;2023-04-25T11:51:08;16.00;53.00
36292;DHT22;22327;51.208;6.418;2023-04-25T11:53:34;15.90;54.00
36292;DHT22;22327;51.208;6.418;2023-04-25T11:56:00;15.90;53.90
36292;DHT22;22327;51.208;6.418;2023-04-25T11:58:26;15.90;54.30
36292;DHT22;22327;51.208;6.418;2023-04-25T12:00:52;16.00;54.10
36292;DHT22;22327;51.208;6.418;2023-04-25T12:03:18;16.10;52.60
36292;DHT22;22327;51.208;6.418;2023-04-25T12:05:45;16.10;50.60
36292;DHT22;22327;51.208;6.418;2023-04-25T12:08:14;16.10;48.90
36292;DHT22;22327;51.208;6.418;2023-04-25T12:10:42;16.30;48.10
36292;DHT22;22327;51.208;6.418;2023-04-25T12:13:25;16.50;47.90
36292;DHT22;22327;51.208;6.418;2023-04-25T12:15:51;16.70;46.50
36292;DHT22;22327;51.208;6.418;2023-04-25T12:18:20;16.70;46.50
36292;DHT22;22327;51.208;6.418;2023-04-25T12:20:46;16.80;46.70
36292;DHT22;22327;51.208;6.418;2023-04-25T12:23:12;16.90;47.30
36292;DHT22;22327;51.208;6.418;2023-04-25T12:25:39;16.90;45.60
36292;DHT22;22327;51.208;6.418;2023-04-25T12:28:32;16.70;45.20
36292;DHT22;22327;51.208;6.418;2023-04-25T12:31:05;16.50;45.50
36292;DHT22;22327;51.208;6.418;2023-04-25T12:33:35;16.50;47.60
36292;DHT22;22327;51.208;6.418;2023-04-25T12:36:02;16.40;44.80
36292;DHT22;22327;51.208;6.418;2023-04-25T12:38:38;16.30;47.50
36292;DHT22;22327;51.208;6.418;2023-04-25T12:41:03;16.30;46.40
36292;DHT22;22327;51.208;6.418;2023-04-25T12:43:29;16.30;46.40
36292;DHT22;22327;51.208;6.418;2023-04-25T12:45:56;16.30;46.10
36292;DHT22;22327;51.208;6.418;2023-04-25T12:48:22;16.30;47.50
36292;DHT22;22327;51.208;6.418;2023-04-25T12:50:49;16.40;47.00
36292;DHT22;22327;51.208;6.418;2023-04-25T12:53:16;16.50;47.90
36292;DHT22;22327;51.208;6.418;2023-04-25T12:55:42;16.70;46.90
36292;DHT22;22327;51.208;6.418;2023-04-25T12:58:07;16.60;46.80
36292;DHT22;22327;51.208;6.418;2023-04-25T13:00:33;16.60;46.70
36292;DHT22;22327;51.208;6.418;2023-04-25T13:02:58;16.70;47.30
36292;DHT22;22327;51.208;6.418;2023-04-25T13:05:25;16.70;46.90
36292;DHT22;22327;51.208;6.418;2023-04-25T13:07:50;16.70;47.50
36292;DHT22;22327;51.208;6.418;2023-04-25T13:10:17;16.70;47.70
36292;DHT22;22327;51.208;6.418;2023-04-25T13:12:43;16.60;47.40
36292;DHT22;22327;51.208;6.418;2023-04-25T13:15:09;16.40;48.30
36292;DHT22;22327;51.208;6.418;2023-04-25T13:17:37;16.20;49.00
36292;DHT22;22327;51.208;6.418;2023-04-25T13:20:04;16.00;50.50
36292;DHT22;22327;51.208;6.418;2023-04-25T13:22:31;15.80;50.90
36292;DHT22;22327;51.208;6.418;2023-04-25T13:24:57;15.80;51.90
36292;DHT22;22327;51.208;6.418;2023-04-25T13:27:22;15.80;51.70
36292;DHT22;22327;51.208;6.418;2023-04-25T13:29:48;15.70;52.60
36292;DHT22;22327;51.208;6.418;2023-04-25T13:32:13;15.60;53.20
36292;DHT22;22327;51.208;6.418;2023-04-25T13:34:39;15.50;53.80
36292;DHT22;22327;51.208;6.418;2023-04-25T13:37:04;15.50;54.90
36292;DHT22;22327;51.208;6.418;2023-04-25T13:39:30;15.40;54.80
36292;DHT22;22327;51.208;6.418;2023-04-25T13:41:55;15.40;55.50
36292;DHT22;22327;51.208;6.418;2023-04-25T13:44:21;15.40;55.80
36292;DHT22;22327;51.208;6.418;2023-04-25T13:46:47;15.50;55.10
36292;DHT22;22327;51.208;6.418;2023-04-25T13:49:12;15.60;54.70
36292;DHT22;22327;51.208;6.418;2023-04-25T13:51:38;15.70;55.20
36292;DHT22;22327;51.208;6.418;2023-04-25T13:54:03;15.90;55.00
36292;DHT22;22327;51.208;6.418;2023-04-25T13:56:29;16.10;53.60
36292;DHT22;22327;51.208;6.418;2023-04-25T13:58:55;16.20;52.30
36292;DHT22;22327;51.208;6.418;2023-04-25T14:01:22;16.30;51.10
36292;DHT22;22327;51.208;6.418;2023-04-25T14:03:47;16.20;50.80
36292;DHT22;22327;51.208;6.418;2023-04-25T14:06:13;16.20;51.40
36292;DHT22;22327;51.208;6.418;2023-04-25T14:08:39;16.40;52.70
36292;DHT22;22327;51.208;6.418;2023-04-25T14:11:04;16.60;52.00
36292;DHT22;22327;51.208;6.418;2023-04-25T14:13:30;16.80;51.40
36292;DHT22;22327;51.208;6.418;2023-04-25T14:15:55;16.90;50.90
36292;DHT22;22327;51.208;6.418;2023-04-25T14:18:21;17.00;50.60
36292;DHT22;22327;51.208;6.418;2023-04-25T14:20:48;16.90;50.30
36292;DHT22;22327;51.208;6.418;2023-04-25T14:23:13;16.90;51.70
36292;DHT22;22327;51.208;6.418;2023-04-25T14:25:39;16.90;52.50
36292;DHT22;22327;51.208;6.418;2023-04-25T14:28:05;17.00;52.90
36292;DHT22;22327;51.208;6.418;2023-04-25T14:30:31;17.00;51.50
36292;DHT22;22327;51.208;6.418;2023-04-25T14:32:57;17.00;51.00
36292;DHT22;22327;51.208;6.418;2023-04-25T14:35:22;16.80;51.70
36292;DHT22;22327;51.208;6.418;2023-04-25T14:37:48;16.60;52.30
36292;DHT22;22327;51.208;6.418;2023-04-25T14:40:13;16.40;50.50
36292;DHT22;22327;51.208;6.418;2023-04-25T14:42:40;16.20;49.50
36292;DHT22;22327;51.208;6.418;2023-04-25T14:45:07;16.20;49.60
36292;DHT22;22327;51.208;6.418;2023-04-25T14:47:34;16.20;48.60
36292;DHT22;22327;51.208;6.418;2023-04-25T14:50:00;16.30;47.80
36292;DHT22;22327;51.208;6.418;2023-04-25T14:52:27;16.40;47.90
36292;DHT22;22327;51.208;6.418;2023-04-25T14:54:52;16.50;47.50
36292;DHT22;22327;51.208;6.418;2023-04-25T14:57:18;16.60;47.80
36292;DHT22;22327;51.208;6.418;2023-04-25T14:59:43;16.50;46.10
36292;DHT22;22327;51.208;6.418;2023-04-25T15:02:09;16.50;46.80
36292;DHT22;22327;51.208;6.418;2023-04-25T15:04:35;16.40;48.50
36292;DHT22;22327;51.208;6.418;2023-04-25T15:07:00;16.40;50.00
36292;DHT22;22327;51.208;6.418;2023-04-25T15:09:26;16.40;51.00
36292;DHT22;22327;51.208;6.418;2023-04-25T15:11:51;16.20;51.00
36292;DHT22;22327;51.208;6.418;2023-04-25T15:14:17;16.20;52.00
36292;DHT22;22327;51.208;6.418;2023-04-25T15:16:43;16.20;53.20
36292;DHT22;22327;51.208;6.418;2023-04-25T15:19:08;16.30;52.40
36292;DHT22;22327;51.208;6.418;2023-04-25T15:21:34;16.30;50.70
36292;DHT22;22327;51.208;6.418;2023-04-25T15:24:00;16.30;50.50
36292;DHT22;22327;51.208;6.418;2023-04-25T15:26:27;16.20;50.20
36292;DHT22;22327;51.208;6.418;2023-04-25T15:28:53;16.10;50.50
36292;DHT22;22327;51.208;6.418;2023-04-25T15:31:19;16.10;50.60
36292;DHT22;22327;51.208;6.418;2023-04-25T15:33:44;15.90;49.70
36292;DHT22;22327;51.208;6.418;2023-04-25T15:36:10;15.70;49.60
36292;DHT22;22327;51.208;6.418;2023-04-25T15:38:36;15.50;50.20
36292;DHT22;22327;51.208;6.418;2023-04-25T15:41:02;15.20;50.10